createdAt,value
2023-01-28T00:02:15.884Z,62.53
2023-01-28T00:04:43.971Z,49.72
2023-01-28T00:07:11.455Z,52.92
2023-01-28T00:09:39.918Z,44.03
2023-01-28T00:20:13.392Z,39.47
2023-01-28T00:22:43.889Z,43.78
2023-01-28T00:25:11.210Z,39.40
2023-01-28T00:27:38.580Z,47.00
2023-01-28T00:30:08.011Z,43.63
2023-01-28T00:32:37.357Z,42.90
2023-01-28T00:35:09.127Z,47.30
2023-01-28T00:37:37.059Z,49.53
2023-01-28T00:40:10.146Z,47.08
2023-01-28T00:42:37.959Z,40.70
2023-01-28T00:45:07.792Z,47.40
2023-01-28T00:47:34.822Z,50.92
2023-01-28T00:50:02.239Z,44.10
2023-01-28T00:52:29.200Z,52.10
2023-01-28T00:54:57.510Z,55.80
2023-01-28T00:57:24.288Z,58.00
2023-01-28T00:59:51.340Z,49.53
2023-01-28T01:02:18.817Z,53.85
2023-01-28T01:04:55.279Z,58.50
2023-01-28T01:07:35.219Z,51.80
2023-01-28T01:10:02.882Z,53.90
2023-01-28T01:12:33.017Z,67.13
2023-01-28T01:15:00.908Z,57.03
2023-01-28T01:17:31.710Z,51.35
2023-01-28T01:20:02.435Z,59.10
2023-01-28T01:22:29.802Z,62.42
2023-01-28T01:24:57.084Z,57.67
2023-01-28T01:27:29.676Z,59.00
2023-01-28T01:29:59.435Z,55.00
2023-01-28T01:32:30.601Z,59.88
2023-01-28T01:34:58.765Z,59.03
2023-01-28T01:37:26.279Z,54.22
2023-01-28T01:39:53.241Z,47.15
2023-01-28T01:42:20.643Z,43.13
2023-01-28T01:45:03.198Z,47.72
2023-01-28T01:47:50.092Z,43.55
2023-01-28T01:50:43.495Z,50.83
2023-01-28T01:53:14.450Z,47.08
2023-01-28T01:55:46.428Z,39.70
2023-01-28T01:58:18.461Z,42.05
2023-01-28T02:00:46.988Z,52.75
2023-01-28T02:03:16.583Z,40.50
2023-01-28T02:05:51.684Z,37.42
2023-01-28T02:08:22.239Z,45.03
2023-01-28T02:11:04.063Z,47.45
2023-01-28T02:13:40.020Z,38.45
2023-01-28T02:16:10.103Z,45.38
2023-01-28T02:18:37.354Z,44.78
2023-01-28T02:21:14.920Z,47.15
2023-01-28T02:24:00.307Z,49.80
2023-01-28T02:27:12.042Z,39.85
2023-01-28T02:30:01.852Z,48.88
2023-01-28T02:32:59.995Z,48.97
2023-01-28T02:35:36.467Z,48.92
2023-01-28T02:38:32.463Z,39.85
2023-01-28T02:41:07.057Z,47.75
2023-01-28T02:43:39.948Z,56.78
2023-01-28T02:46:38.970Z,50.75
2023-01-28T02:49:25.107Z,45.55
2023-01-28T02:52:13.682Z,53.40
2023-01-28T02:54:53.789Z,45.70
2023-01-28T02:57:23.621Z,49.83
2023-01-28T03:00:19.874Z,50.10
2023-01-28T03:03:00.005Z,47.45
2023-01-28T03:05:38.923Z,48.05
2023-01-28T03:08:30.647Z,54.95
2023-01-28T03:11:18.620Z,48.10
2023-01-28T03:14:07.989Z,54.85
2023-01-28T03:16:56.601Z,61.13
2023-01-28T03:19:43.861Z,52.20
2023-01-28T03:22:29.924Z,56.50
2023-01-28T03:25:17.232Z,45.47
2023-01-28T03:28:23.433Z,55.97
2023-01-28T03:31:18.008Z,49.28
2023-01-28T03:34:04.624Z,51.60
2023-01-28T03:36:50.456Z,65.22
2023-01-28T03:39:29.998Z,67.57
2023-01-28T03:42:20.485Z,53.03
2023-01-28T03:44:53.807Z,55.08
2023-01-28T03:47:23.688Z,65.05
2023-01-28T03:49:52.779Z,64.05
2023-01-28T03:52:24.583Z,66.82
2023-01-28T03:54:53.549Z,57.42
2023-01-28T03:57:23.532Z,57.97
2023-01-28T03:59:52.900Z,61.92
2023-01-28T04:02:24.705Z,64.22
2023-01-28T04:04:52.511Z,54.45
2023-01-28T04:07:21.633Z,61.60
2023-01-28T04:09:48.564Z,54.80
2023-01-28T04:12:16.188Z,50.05
2023-01-28T04:14:43.132Z,50.90
2023-01-28T04:17:12.828Z,60.75
2023-01-28T04:19:43.879Z,65.00
2023-01-28T04:22:13.021Z,57.70
2023-01-28T04:24:41.456Z,54.40
2023-01-28T04:27:09.544Z,63.60
2023-01-28T04:29:39.276Z,61.60
2023-01-28T04:32:06.580Z,61.05
2023-01-28T04:34:33.522Z,50.25
2023-01-28T04:37:03.459Z,57.53
2023-01-28T04:39:30.299Z,51.13
2023-01-28T04:41:57.252Z,56.60
2023-01-28T04:44:25.496Z,61.40
2023-01-28T04:46:53.062Z,60.35
2023-01-28T04:49:19.922Z,69.68
2023-01-28T04:51:47.335Z,63.33
2023-01-28T04:54:15.144Z,60.03
2023-01-28T04:56:42.465Z,60.40
2023-01-28T04:59:09.429Z,61.78
2023-01-28T05:01:36.789Z,62.72
2023-01-28T05:04:06.015Z,68.53
2023-01-28T05:06:36.660Z,59.53
2023-01-28T05:09:05.588Z,60.15
2023-01-28T05:11:38.682Z,57.08
2023-01-28T05:14:06.947Z,61.53
2023-01-28T05:16:35.275Z,57.67
2023-01-28T05:19:03.953Z,63.30
2023-01-28T05:21:33.844Z,59.20
2023-01-28T05:24:04.009Z,60.70
2023-01-28T05:26:33.042Z,63.22
2023-01-28T05:29:01.031Z,52.63
2023-01-28T05:31:28.284Z,65.35
2023-01-28T05:33:56.417Z,50.05
2023-01-28T05:36:25.306Z,52.45
2023-01-28T05:38:53.765Z,48.08
2023-01-28T05:41:21.657Z,58.15
2023-01-28T05:43:49.010Z,62.08
2023-01-28T05:46:19.636Z,62.45
2023-01-28T05:48:46.672Z,67.80
2023-01-28T05:51:16.011Z,53.17
2023-01-28T05:53:43.031Z,54.17
2023-01-28T05:56:11.781Z,55.33
2023-01-28T05:58:41.997Z,54.88
2023-01-28T06:01:09.561Z,51.88
2023-01-28T06:03:38.081Z,47.10
2023-01-28T06:06:06.415Z,51.70
2023-01-28T06:08:33.378Z,48.33
2023-01-28T06:11:00.802Z,47.88
2023-01-28T06:13:31.739Z,54.58
2023-01-28T06:16:01.139Z,52.95
2023-01-28T06:18:29.674Z,47.33
2023-01-28T06:20:59.550Z,53.80
2023-01-28T06:23:27.030Z,53.42
2023-01-28T06:25:58.265Z,47.87
2023-01-28T06:28:29.525Z,42.85
2023-01-28T06:30:58.003Z,42.78
2023-01-28T06:33:30.518Z,42.60
2023-01-28T06:36:00.199Z,40.30
2023-01-28T06:38:30.699Z,46.10
2023-01-28T06:40:59.486Z,39.53
2023-01-28T06:43:30.990Z,35.88
2023-01-28T06:46:07.500Z,39.03
2023-01-28T06:48:34.973Z,39.85
2023-01-28T06:51:03.743Z,37.20
2023-01-28T06:53:31.110Z,43.67
2023-01-28T06:55:58.310Z,37.15
2023-01-28T06:58:28.165Z,35.10
2023-01-28T07:00:55.268Z,36.05
2023-01-28T07:03:22.475Z,35.10
2023-01-28T07:05:49.385Z,35.40
2023-01-28T07:08:16.559Z,39.13
2023-01-28T07:10:46.348Z,31.73
2023-01-28T07:13:15.994Z,34.83
2023-01-28T07:15:43.325Z,36.88
2023-01-28T07:18:10.529Z,32.70
2023-01-28T07:20:38.349Z,36.92
2023-01-28T07:23:11.594Z,32.47
2023-01-28T07:25:38.556Z,31.25
2023-01-28T07:28:09.448Z,40.95
2023-01-28T07:30:38.213Z,36.47
2023-01-28T07:33:08.536Z,33.55
2023-01-28T07:35:35.682Z,38.03
2023-01-28T07:38:03.620Z,36.88
2023-01-28T07:40:32.700Z,31.95
2023-01-28T07:43:05.351Z,32.00
2023-01-28T07:45:32.815Z,32.05
2023-01-28T07:48:03.158Z,28.70
2023-01-28T07:50:34.498Z,33.78
2023-01-28T07:53:09.325Z,33.97
2023-01-28T07:55:37.566Z,30.52
2023-01-28T07:58:06.851Z,33.28
2023-01-28T08:00:36.410Z,35.83
2023-01-28T08:03:09.139Z,33.80
2023-01-28T08:05:51.209Z,30.38
2023-01-28T08:08:25.344Z,35.38
2023-01-28T08:10:53.131Z,38.15
2023-01-28T08:13:27.043Z,35.53
2023-01-28T08:15:57.250Z,38.65
2023-01-28T08:18:25.027Z,33.38
2023-01-28T08:20:57.408Z,38.90
2023-01-28T08:23:29.204Z,37.25
2023-01-28T08:26:00.330Z,31.10
2023-01-28T08:28:27.686Z,38.97
2023-01-28T08:30:54.726Z,32.88
2023-01-28T08:33:23.672Z,38.72
2023-01-28T08:35:53.239Z,35.33
2023-01-28T08:38:21.649Z,38.28
2023-01-28T08:40:50.742Z,40.95
2023-01-28T08:43:17.821Z,41.30
2023-01-28T08:45:44.818Z,34.80
2023-01-28T08:48:16.194Z,34.45
2023-01-28T08:50:44.467Z,37.92
2023-01-28T08:53:18.022Z,37.67
2023-01-28T08:55:47.502Z,40.42
2023-01-28T09:00:58.983Z,36.63
2023-01-28T09:03:27.017Z,39.17
2023-01-28T09:08:36.287Z,44.10
2023-01-28T09:11:03.975Z,37.95
2023-01-28T09:19:02.010Z,39.38
2023-01-28T09:21:54.792Z,44.08
2023-01-28T09:24:24.407Z,33.28
2023-01-28T09:27:10.454Z,33.85
2023-01-28T09:35:45.644Z,30.00
2023-01-28T09:38:15.069Z,34.38
2023-01-28T09:43:44.771Z,23.55
2023-01-28T09:46:19.654Z,28.77
2023-01-28T09:48:55.511Z,31.83
2023-01-28T09:51:39.459Z,27.73
2023-01-28T09:54:35.442Z,28.63
2023-01-28T09:57:13.027Z,28.50
2023-01-28T09:59:48.881Z,28.38
2023-01-28T10:03:00.679Z,32.42
2023-01-28T10:06:11.719Z,33.47
2023-01-28T10:09:10.701Z,32.53
2023-01-28T10:12:19.367Z,36.03
2023-01-28T10:15:30.994Z,34.75
2023-01-28T10:18:17.501Z,33.35
2023-01-28T10:21:09.706Z,35.28
2023-01-28T10:29:15.373Z,33.58
2023-01-28T10:31:54.875Z,32.30
2023-01-28T10:34:26.967Z,30.13
2023-01-28T10:36:54.987Z,27.38
2023-01-28T10:39:26.015Z,32.85
2023-01-28T10:41:58.568Z,28.92
2023-01-28T10:49:56.251Z,28.00
2023-01-28T10:52:24.960Z,24.23
2023-01-28T10:55:08.559Z,23.55
2023-01-28T10:57:46.020Z,26.52
2023-01-28T11:00:24.351Z,25.42
2023-01-28T11:02:59.663Z,18.80
2023-01-28T11:08:18.677Z,20.67
2023-01-28T11:10:48.283Z,17.98
2023-01-28T11:16:10.190Z,23.25
2023-01-28T11:18:47.796Z,16.65
2023-01-28T11:31:58.764Z,16.13
2023-01-28T11:34:33.737Z,15.20
2023-01-28T11:37:21.025Z,12.68
2023-01-28T11:39:50.390Z,12.75
2023-01-28T11:42:23.387Z,13.80
2023-01-28T11:44:51.913Z,14.55
2023-01-28T11:48:00.681Z,14.90
2023-01-28T11:50:35.200Z,16.95
2023-01-28T11:53:51.897Z,13.55
2023-01-28T11:56:45.613Z,11.75
2023-01-28T11:59:21.383Z,12.57
2023-01-28T12:02:08.124Z,12.63
2023-01-28T12:05:19.591Z,10.68
2023-01-28T12:08:13.566Z,13.68
2023-01-28T12:10:58.651Z,10.90
2023-01-28T12:14:15.491Z,12.95
2023-01-28T12:17:39.170Z,11.40
2023-01-28T12:20:29.712Z,18.70
2023-01-28T12:23:15.979Z,12.55
2023-01-28T12:28:41.410Z,14.98
2023-01-28T12:31:38.155Z,11.00
2023-01-28T12:34:20.952Z,12.88
2023-01-28T12:37:28.057Z,17.15
2023-01-28T12:40:11.366Z,13.52
2023-01-28T12:43:40.329Z,12.98
2023-01-28T12:46:44.800Z,10.82
2023-01-28T12:49:34.619Z,12.48
2023-01-28T12:52:24.322Z,11.55
2023-01-28T12:55:00.900Z,10.00
2023-01-28T12:57:36.464Z,13.65
2023-01-28T13:00:26.585Z,9.98
2023-01-28T13:03:17.362Z,10.00
2023-01-28T13:06:13.615Z,13.38
2023-01-28T13:08:42.447Z,18.25
2023-01-28T13:11:18.972Z,11.50
2023-01-28T13:13:48.200Z,13.25
2023-01-28T13:16:17.893Z,13.05
2023-01-28T13:18:48.118Z,9.65
2023-01-28T13:21:47.605Z,11.02
2023-01-28T13:24:23.953Z,9.95
2023-01-28T13:27:14.302Z,9.15
2023-01-28T13:29:43.971Z,9.35
2023-01-28T13:32:56.177Z,8.60
2023-01-28T13:35:41.680Z,10.77
2023-01-28T13:38:22.929Z,9.45
2023-01-28T13:41:03.492Z,10.77
2023-01-28T13:43:39.812Z,9.25
2023-01-28T13:46:16.132Z,9.10
2023-01-28T13:48:57.748Z,7.93
2023-01-28T13:51:34.161Z,6.75
2023-01-28T13:54:23.467Z,5.57
2023-01-28T13:57:15.204Z,6.07
2023-01-28T14:00:31.060Z,6.25
2023-01-28T14:03:36.082Z,6.35
2023-01-28T14:06:41.643Z,9.40
2023-01-28T14:10:02.261Z,5.88
2023-01-28T14:19:51.113Z,8.43
2023-01-28T14:22:25.891Z,8.43
2023-01-28T14:28:02.453Z,5.03
2023-01-28T17:08:02.799Z,7.55
2023-01-28T17:15:55.022Z,7.70
2023-01-28T17:21:09.959Z,8.45
2023-01-28T17:28:54.521Z,7.35
2023-01-28T17:31:22.976Z,9.18
2023-01-28T17:33:57.160Z,7.80
2023-01-28T17:36:29.243Z,11.27
2023-01-28T17:38:56.434Z,11.00
2023-01-28T17:41:32.648Z,9.52
2023-01-28T17:44:01.791Z,9.68
2023-01-28T17:46:29.567Z,11.40
2023-01-28T17:49:02.255Z,13.60
2023-01-28T17:54:21.103Z,9.85
2023-01-28T17:56:49.965Z,10.45
2023-01-28T17:59:18.873Z,10.80
2023-01-28T18:01:51.577Z,11.20
2023-01-28T18:04:20.010Z,11.27
2023-01-28T18:06:50.238Z,10.18
2023-01-28T18:09:20.129Z,8.73
2023-01-28T18:11:48.709Z,12.80
2023-01-28T18:14:18.724Z,9.05
2023-01-28T18:16:46.898Z,9.10
2023-01-28T18:19:17.394Z,9.32
2023-01-28T18:21:52.936Z,10.70
2023-01-28T18:24:21.497Z,11.68
2023-01-28T18:26:49.354Z,11.70
2023-01-28T18:29:20.889Z,10.48
2023-01-28T18:31:49.594Z,10.85
2023-01-28T18:34:20.932Z,17.00
2023-01-28T18:36:47.916Z,11.10
2023-01-28T18:39:17.204Z,11.55
2023-01-28T18:41:44.385Z,13.98
2023-01-28T18:44:14.551Z,11.43
2023-01-28T18:46:44.312Z,10.02
2023-01-28T18:49:12.019Z,10.88
2023-01-28T18:51:46.435Z,12.68
2023-01-28T18:54:21.626Z,10.10
2023-01-28T18:56:50.479Z,8.13
2023-01-28T18:59:17.559Z,9.43
2023-01-28T19:01:45.394Z,9.52
2023-01-28T19:04:16.343Z,7.82
2023-01-28T19:06:44.953Z,8.50
2023-01-28T19:09:32.125Z,7.35
2023-01-28T19:12:00.739Z,6.80
2023-01-28T19:14:28.326Z,10.23
2023-01-28T19:16:56.694Z,7.80
2023-01-28T19:19:24.934Z,8.00
2023-01-28T19:21:54.969Z,7.20
2023-01-28T19:24:22.316Z,7.85
2023-01-28T19:26:51.618Z,6.50
2023-01-28T19:29:19.794Z,5.95
2023-01-28T19:31:49.437Z,5.60
2023-01-28T19:34:21.273Z,5.20
2023-01-28T19:36:48.564Z,3.80
2023-01-28T19:39:17.146Z,3.72
2023-01-28T19:41:45.469Z,5.20
2023-01-28T19:44:14.155Z,5.10
2023-01-28T19:46:41.770Z,5.10
2023-01-28T19:49:11.193Z,3.90
2023-01-28T19:51:38.221Z,4.80
2023-01-28T19:54:17.613Z,4.90
2023-01-28T19:56:44.551Z,5.30
2023-01-28T19:59:14.741Z,8.80
2023-01-28T20:01:43.151Z,6.35
2023-01-28T20:04:15.335Z,4.78
2023-01-28T20:06:45.094Z,6.25
2023-01-28T20:09:18.136Z,4.28
2023-01-28T20:11:47.280Z,8.00
2023-01-28T20:14:23.784Z,6.07
2023-01-28T20:16:51.110Z,8.48
2023-01-28T20:19:21.454Z,9.60
2023-01-28T20:21:53.262Z,11.02
2023-01-28T20:24:22.128Z,14.40
2023-01-28T20:26:49.358Z,15.32
2023-01-28T20:29:19.027Z,13.00
2023-01-28T20:31:57.441Z,8.60
2023-01-28T20:34:34.862Z,16.38
2023-01-28T20:37:05.937Z,9.55
2023-01-28T20:39:41.756Z,12.70
2023-01-28T20:42:14.635Z,12.48
2023-01-28T20:44:43.794Z,10.43
2023-01-28T20:47:10.962Z,9.70
2023-01-28T20:49:38.324Z,8.50
2023-01-28T20:52:13.746Z,9.23
2023-01-28T20:54:40.759Z,9.10
2023-01-28T20:57:20.528Z,21.63
2023-01-28T21:02:46.308Z,8.38
2023-01-28T21:07:56.502Z,10.43
2023-01-28T21:10:26.377Z,9.57
2023-01-28T21:12:56.644Z,11.77
2023-01-28T21:15:24.481Z,10.65
2023-01-28T21:17:53.859Z,12.10
2023-01-28T21:20:24.479Z,8.68
2023-01-28T21:22:57.456Z,7.75
2023-01-28T21:25:27.722Z,10.32
2023-01-28T21:27:55.312Z,12.05
2023-01-28T21:30:22.291Z,10.50
2023-01-28T21:32:50.008Z,14.38
2023-01-28T21:35:17.101Z,9.73
2023-01-28T21:37:50.913Z,10.13
2023-01-28T21:40:18.496Z,9.68
2023-01-28T21:42:47.364Z,13.05
2023-01-28T21:45:14.391Z,18.95
2023-01-28T21:47:41.609Z,12.32
2023-01-28T21:52:51.422Z,10.40
2023-01-28T21:55:19.004Z,8.95
2023-01-28T21:57:47.288Z,14.77
2023-01-28T22:00:17.967Z,16.00
2023-01-28T22:10:53.261Z,11.55
2023-01-28T22:13:30.225Z,13.18
2023-01-28T22:26:46.953Z,9.75
2023-01-28T22:48:02.691Z,7.43
2023-01-28T22:55:56.274Z,7.43
2023-01-28T23:06:24.746Z,9.68
2023-01-28T23:11:28.647Z,6.75
2023-01-28T23:14:23.070Z,9.60
2023-01-28T23:17:09.437Z,6.18
2023-01-28T23:19:54.868Z,5.32
2023-01-28T23:22:54.851Z,7.20
2023-01-28T23:41:31.860Z,5.93
2023-01-28T23:46:40.971Z,9.32
2023-01-28T23:49:09.835Z,8.55
